San Antonio, TX (78201)

2:16 AM CDT on April 26, 2017 (GMT -0500)
Woodlawn Lake | | Change Station
Active Advisory: Fire Weather Watch

Elev 758 ft 29.47 °N, 98.54 °W | Updated 53 seconds ago

Overcast
Overcast
75.7 °F
Feels Like 76 °F
N
3.0
Wind Variable Wind from South
Gusts 6.0 mph

Today
High -- | Low -- °F
--% Chance of Precip.
Yesterday
High -- | Low -- °F
Precip. -- in
Pressure 29.45 in
Visibility 10.0 miles
Clouds Overcast 1100 ft
Heat Index 76 °F
Dew Point 71 °F
Humidity 86%
Rainfall 0.00 in
Snow Depth Not available.
6:56 AM 8:07 PM
Waning Crescent, 0% visible
METAR KSAT 260651Z 15014KT 10SM OVC011 24/21 A2950 RMK AO2 SLP972 T02390211 $
Pressure 29.45 in
Visibility 10.0 miles
Clouds Overcast 1100 ft
Heat Index 76 °F
Dew Point 71 °F
Humidity 86%
Rainfall 0.00 in
Snow Depth Not available.
6:56 AM 8:07 PM
Waning Crescent, 0% visible
METAR KSAT 260651Z 15014KT 10SM OVC011 24/21 A2950 RMK AO2 SLP972 T02390211 $

Get Your Daily Forecast Email!

Thanks for signing up!

Be on the lookout for a verification email in your inbox.

You'll start receiving severe weather alerts in your inbox..

×

10-Day Weather Forecast

Almanac

Astronomy

Apr. 26, 2017 Rise Set
Actual Time
Civil Twilight
Nautical Twilight
Astronomical Twilight
Moon
Length of Visible Light
Length of Day
Tomorrow will be .
, % of the Moon is Illuminated

Today's Extremes

State Highs State Lows

Community

WunderPhotos

WunderBlog® & News

Nearby

Air Quality

  Air Quality AQ Index Pollutant
Not available.

Snow Depth

Station Depth Elevation

Earthquake Activity

City Distance Mag. Time & Date
Minimum magnitude displayed is 2.5.

Coastal Water Temperatures

Place Temperature

Stations

Nearby Weather Stations

Station Location Temp. Windchill Dew Point Humidity Wind Precip. Elev Updated Type
                   

Watches & Warnings

Fire Weather Watch
Issued: 10:19 PM CDT Apr. 25, 2017 – National Weather Service

... Fire Weather Watch remains in effect from Wednesday afternoon
through Wednesday evening for areas from San Antonio west and
southwest to the Rio Grande...

* affected area... fire weather zones 183, 202, 203, 204, 205,
217, 218, 219, 220, and 228.

* Wind... northwesterly 15 to 25 mph and gusty.

* Humidity... 10 to 20 percent.

* Impacts... any fires that develop will likely spread rapidly.
Outdoor burning is not recommended.

Precautionary/preparedness actions...

A Fire Weather Watch means that critical fire weather conditions
are forecast to occur. Listen for later forecasts and possible
red flag warnings.